sensor_id;sensor_type;location;lat;lon;timestamp;P1;durP1;ratioP1;P2;durP2;ratioP2
803;SDS011;25687;49.976;8.240;2022-08-04T00:00:43;3.37;;;2.73;;
803;SDS011;25687;49.976;8.240;2022-08-04T00:03:18;4.47;;;3.43;;
803;SDS011;25687;49.976;8.240;2022-08-04T00:05:57;3.77;;;3.10;;
803;SDS011;25687;49.976;8.240;2022-08-04T00:11:04;4.90;;;2.67;;
803;SDS011;25687;49.976;8.240;2022-08-04T00:13:34;4.40;;;3.30;;
803;SDS011;25687;49.976;8.240;2022-08-04T00:16:06;3.87;;;2.90;;
803;SDS011;25687;49.976;8.240;2022-08-04T00:18:40;6.03;;;2.93;;
803;SDS011;25687;49.976;8.240;2022-08-04T00:21:10;6.90;;;3.20;;
803;SDS011;25687;49.976;8.240;2022-08-04T00:23:37;5.13;;;3.03;;
803;SDS011;25687;49.976;8.240;2022-08-04T00:26:03;3.10;;;2.80;;
803;SDS011;25687;49.976;8.240;2022-08-04T00:28:29;3.83;;;2.80;;
803;SDS011;25687;49.976;8.240;2022-08-04T00:30:55;6.07;;;3.10;;
803;SDS011;25687;49.976;8.240;2022-08-04T00:33:21;5.90;;;3.07;;
803;SDS011;25687;49.976;8.240;2022-08-04T00:35:47;3.43;;;2.70;;
803;SDS011;25687;49.976;8.240;2022-08-04T00:38:14;4.90;;;2.73;;
803;SDS011;25687;49.976;8.240;2022-08-04T00:44:03;3.27;;;2.80;;
803;SDS011;25687;49.976;8.240;2022-08-04T00:46:27;8.60;;;3.30;;
803;SDS011;25687;49.976;8.240;2022-08-04T00:51:47;5.67;;;2.90;;
803;SDS011;25687;49.976;8.240;2022-08-04T00:54:24;5.67;;;2.93;;
803;SDS011;25687;49.976;8.240;2022-08-04T00:57:22;4.43;;;3.07;;
803;SDS011;25687;49.976;8.240;2022-08-04T01:18:29;4.10;;;2.60;;
803;SDS011;25687;49.976;8.240;2022-08-04T01:36:35;3.63;;;2.97;;
803;SDS011;25687;49.976;8.240;2022-08-04T01:39:09;7.33;;;2.93;;
803;SDS011;25687;49.976;8.240;2022-08-04T01:41:54;7.60;;;3.37;;
803;SDS011;25687;49.976;8.240;2022-08-04T01:44:20;4.97;;;3.23;;
803;SDS011;25687;49.976;8.240;2022-08-04T01:46:49;4.70;;;3.10;;
803;SDS011;25687;49.976;8.240;2022-08-04T01:52:39;3.50;;;3.20;;
803;SDS011;25687;49.976;8.240;2022-08-04T01:55:07;3.50;;;3.20;;
803;SDS011;25687;49.976;8.240;2022-08-04T02:04:18;3.87;;;3.50;;
803;SDS011;25687;49.976;8.240;2022-08-04T02:09:42;4.97;;;3.10;;
803;SDS011;25687;49.976;8.240;2022-08-04T02:12:24;5.10;;;3.50;;
803;SDS011;25687;49.976;8.240;2022-08-04T02:15:05;4.70;;;3.10;;
803;SDS011;25687;49.976;8.240;2022-08-04T02:17:50;4.67;;;3.40;;
803;SDS011;25687;49.976;8.240;2022-08-04T02:20:24;6.73;;;3.33;;
803;SDS011;25687;49.976;8.240;2022-08-04T02:22:58;3.53;;;2.90;;
803;SDS011;25687;49.976;8.240;2022-08-04T02:25:26;4.77;;;3.00;;
803;SDS011;25687;49.976;8.240;2022-08-04T02:30:39;5.63;;;3.27;;
803;SDS011;25687;49.976;8.240;2022-08-04T02:33:15;3.93;;;3.03;;
803;SDS011;25687;49.976;8.240;2022-08-04T02:35:46;4.00;;;3.60;;
803;SDS011;25687;49.976;8.240;2022-08-04T02:38:23;7.10;;;3.20;;
803;SDS011;25687;49.976;8.240;2022-08-04T02:40:58;5.47;;;3.07;;
803;SDS011;25687;49.976;8.240;2022-08-04T02:43:25;3.27;;;2.77;;
803;SDS011;25687;49.976;8.240;2022-08-04T02:45:54;5.17;;;2.93;;
803;SDS011;25687;49.976;8.240;2022-08-04T02:48:22;5.90;;;2.80;;
803;SDS011;25687;49.976;8.240;2022-08-04T02:50:49;4.13;;;3.00;;
803;SDS011;25687;49.976;8.240;2022-08-04T02:53:17;3.73;;;2.90;;
803;SDS011;25687;49.976;8.240;2022-08-04T02:55:46;3.40;;;3.10;;
803;SDS011;25687;49.976;8.240;2022-08-04T02:58:14;3.73;;;3.03;;
803;SDS011;25687;49.976;8.240;2022-08-04T03:00:43;3.50;;;3.20;;
803;SDS011;25687;49.976;8.240;2022-08-04T03:16:19;3.57;;;3.03;;
803;SDS011;25687;49.976;8.240;2022-08-04T03:24:32;3.57;;;3.20;;
803;SDS011;25687;49.976;8.240;2022-08-04T03:32:54;7.17;;;3.70;;
803;SDS011;25687;49.976;8.240;2022-08-04T03:41:47;4.57;;;3.17;;
803;SDS011;25687;49.976;8.240;2022-08-04T04:16:37;6.87;;;3.30;;
803;SDS011;25687;49.976;8.240;2022-08-04T04:27:39;3.40;;;3.10;;
803;SDS011;25687;49.976;8.240;2022-08-04T04:30:10;3.80;;;2.97;;
803;SDS011;25687;49.976;8.240;2022-08-04T04:33:02;4.50;;;3.30;;
803;SDS011;25687;49.976;8.240;2022-08-04T04:38:39;4.93;;;3.43;;
803;SDS011;25687;49.976;8.240;2022-08-04T04:51:57;7.50;;;2.90;;
803;SDS011;25687;49.976;8.240;2022-08-04T04:54:32;5.33;;;2.97;;
803;SDS011;25687;49.976;8.240;2022-08-04T04:57:15;7.83;;;3.70;;
803;SDS011;25687;49.976;8.240;2022-08-04T05:00:29;3.33;;;3.03;;
803;SDS011;25687;49.976;8.240;2022-08-04T05:13:48;4.93;;;3.10;;
803;SDS011;25687;49.976;8.240;2022-08-04T05:16:19;4.17;;;2.73;;
803;SDS011;25687;49.976;8.240;2022-08-04T05:21:50;7.67;;;2.60;;
803;SDS011;25687;49.976;8.240;2022-08-04T05:24:21;7.13;;;2.77;;
803;SDS011;25687;49.976;8.240;2022-08-04T05:26:51;6.33;;;2.93;;
803;SDS011;25687;49.976;8.240;2022-08-04T05:29:30;8.40;;;2.73;;
803;SDS011;25687;49.976;8.240;2022-08-04T05:32:00;4.67;;;2.87;;
803;SDS011;25687;49.976;8.240;2022-08-04T05:34:51;3.40;;;2.83;;
803;SDS011;25687;49.976;8.240;2022-08-04T05:37:18;5.13;;;3.20;;
803;SDS011;25687;49.976;8.240;2022-08-04T05:39:51;7.10;;;2.60;;
803;SDS011;25687;49.976;8.240;2022-08-04T05:42:21;4.30;;;2.87;;
803;SDS011;25687;49.976;8.240;2022-08-04T05:44:47;5.00;;;3.20;;
803;SDS011;25687;49.976;8.240;2022-08-04T05:47:12;8.73;;;3.07;;
803;SDS011;25687;49.976;8.240;2022-08-04T05:49:40;7.00;;;3.43;;
803;SDS011;25687;49.976;8.240;2022-08-04T05:52:08;8.13;;;3.53;;
803;SDS011;25687;49.976;8.240;2022-08-04T05:54:34;5.87;;;3.33;;
803;SDS011;25687;49.976;8.240;2022-08-04T05:57:02;9.80;;;3.10;;
803;SDS011;25687;49.976;8.240;2022-08-04T05:59:29;10.03;;;3.30;;
803;SDS011;25687;49.976;8.240;2022-08-04T06:01:56;5.90;;;3.23;;
803;SDS011;25687;49.976;8.240;2022-08-04T06:04:26;4.23;;;3.33;;
803;SDS011;25687;49.976;8.240;2022-08-04T06:06:55;7.50;;;3.30;;
803;SDS011;25687;49.976;8.240;2022-08-04T06:09:20;5.90;;;3.60;;
803;SDS011;25687;49.976;8.240;2022-08-04T06:11:46;8.23;;;3.50;;
803;SDS011;25687;49.976;8.240;2022-08-04T06:14:14;5.57;;;3.23;;
803;SDS011;25687;49.976;8.240;2022-08-04T06:16:42;7.83;;;3.20;;
803;SDS011;25687;49.976;8.240;2022-08-04T06:19:10;7.03;;;3.37;;
803;SDS011;25687;49.976;8.240;2022-08-04T06:21:37;8.93;;;3.10;;
803;SDS011;25687;49.976;8.240;2022-08-04T06:24:06;11.13;;;3.73;;
803;SDS011;25687;49.976;8.240;2022-08-04T06:26:34;6.90;;;3.63;;
803;SDS011;25687;49.976;8.240;2022-08-04T06:29:01;10.40;;;3.83;;
803;SDS011;25687;49.976;8.240;2022-08-04T06:31:28;9.00;;;3.85;;
803;SDS011;25687;49.976;8.240;2022-08-04T06:34:07;7.78;;;4.07;;
803;SDS011;25687;49.976;8.240;2022-08-04T06:36:33;6.95;;;3.53;;
803;SDS011;25687;49.976;8.240;2022-08-04T06:39:02;7.65;;;3.70;;
803;SDS011;25687;49.976;8.240;2022-08-04T06:41:29;11.25;;;3.95;;
803;SDS011;25687;49.976;8.240;2022-08-04T06:43:59;10.02;;;3.50;;
803;SDS011;25687;49.976;8.240;2022-08-04T06:46:27;7.03;;;3.35;;
803;SDS011;25687;49.976;8.240;2022-08-04T06:48:54;5.13;;;3.15;;
803;SDS011;25687;49.976;8.240;2022-08-04T06:51:20;4.55;;;3.17;;
803;SDS011;25687;49.976;8.240;2022-08-04T06:53:47;6.10;;;3.03;;
803;SDS011;25687;49.976;8.240;2022-08-04T06:56:13;9.68;;;2.83;;
803;SDS011;25687;49.976;8.240;2022-08-04T06:58:40;6.47;;;3.10;;
803;SDS011;25687;49.976;8.240;2022-08-04T07:01:07;7.13;;;2.88;;
803;SDS011;25687;49.976;8.240;2022-08-04T07:03:34;11.85;;;2.70;;
803;SDS011;25687;49.976;8.240;2022-08-04T07:06:00;4.65;;;2.85;;
803;SDS011;25687;49.976;8.240;2022-08-04T07:08:26;5.05;;;2.85;;
803;SDS011;25687;49.976;8.240;2022-08-04T07:10:52;8.63;;;3.05;;
803;SDS011;25687;49.976;8.240;2022-08-04T07:13:19;9.00;;;3.28;;
803;SDS011;25687;49.976;8.240;2022-08-04T07:15:45;7.00;;;2.97;;
803;SDS011;25687;49.976;8.240;2022-08-04T07:18:12;4.95;;;2.92;;
803;SDS011;25687;49.976;8.240;2022-08-04T07:20:41;10.32;;;3.00;;
803;SDS011;25687;49.976;8.240;2022-08-04T07:23:08;14.30;;;3.05;;
803;SDS011;25687;49.976;8.240;2022-08-04T07:25:36;6.07;;;2.88;;
803;SDS011;25687;49.976;8.240;2022-08-04T07:28:02;12.43;;;3.17;;
803;SDS011;25687;49.976;8.240;2022-08-04T07:30:28;7.45;;;3.10;;
803;SDS011;25687;49.976;8.240;2022-08-04T07:32:55;7.18;;;2.85;;
803;SDS011;25687;49.976;8.240;2022-08-04T07:35:21;8.13;;;3.30;;
803;SDS011;25687;49.976;8.240;2022-08-04T07:37:47;5.30;;;2.90;;
803;SDS011;25687;49.976;8.240;2022-08-04T07:40:13;8.27;;;3.20;;
803;SDS011;25687;49.976;8.240;2022-08-04T07:42:38;11.63;;;3.55;;
803;SDS011;25687;49.976;8.240;2022-08-04T07:45:05;10.80;;;3.20;;
803;SDS011;25687;49.976;8.240;2022-08-04T07:47:31;3.42;;;2.90;;
803;SDS011;25687;49.976;8.240;2022-08-04T07:49:57;9.18;;;3.22;;
803;SDS011;25687;49.976;8.240;2022-08-04T07:52:22;5.50;;;3.28;;
803;SDS011;25687;49.976;8.240;2022-08-04T07:54:50;10.13;;;2.55;;
803;SDS011;25687;49.976;8.240;2022-08-04T07:57:17;7.38;;;3.03;;
803;SDS011;25687;49.976;8.240;2022-08-04T07:59:44;9.05;;;2.88;;
803;SDS011;25687;49.976;8.240;2022-08-04T08:02:10;8.00;;;3.15;;
803;SDS011;25687;49.976;8.240;2022-08-04T08:04:39;7.07;;;3.40;;
803;SDS011;25687;49.976;8.240;2022-08-04T08:07:04;4.75;;;2.78;;
803;SDS011;25687;49.976;8.240;2022-08-04T08:09:31;6.70;;;3.20;;
803;SDS011;25687;49.976;8.240;2022-08-04T08:11:57;8.23;;;3.10;;
803;SDS011;25687;49.976;8.240;2022-08-04T08:14:24;5.22;;;3.17;;
803;SDS011;25687;49.976;8.240;2022-08-04T08:16:50;10.85;;;3.03;;
803;SDS011;25687;49.976;8.240;2022-08-04T08:19:16;4.60;;;2.83;;
803;SDS011;25687;49.976;8.240;2022-08-04T08:21:45;6.97;;;2.53;;
803;SDS011;25687;49.976;8.240;2022-08-04T08:24:15;11.07;;;3.10;;
803;SDS011;25687;49.976;8.240;2022-08-04T08:26:41;5.68;;;2.50;;
803;SDS011;25687;49.976;8.240;2022-08-04T08:29:07;10.95;;;2.75;;
803;SDS011;25687;49.976;8.240;2022-08-04T08:31:33;9.85;;;2.15;;
803;SDS011;25687;49.976;8.240;2022-08-04T08:33:59;6.50;;;2.83;;
803;SDS011;25687;49.976;8.240;2022-08-04T08:36:32;5.72;;;2.40;;
803;SDS011;25687;49.976;8.240;2022-08-04T08:47:55;8.68;;;2.50;;
803;SDS011;25687;49.976;8.240;2022-08-04T08:53:29;9.52;;;2.85;;
803;SDS011;25687;49.976;8.240;2022-08-04T09:07:04;9.95;;;2.72;;
803;SDS011;25687;49.976;8.240;2022-08-04T09:12:39;6.40;;;2.58;;
803;SDS011;25687;49.976;8.240;2022-08-04T09:19:14;4.25;;;2.25;;
803;SDS011;25687;49.976;8.240;2022-08-04T09:24:33;3.47;;;2.35;;
803;SDS011;25687;49.976;8.240;2022-08-04T09:27:12;3.97;;;2.35;;
803;SDS011;25687;49.976;8.240;2022-08-04T09:35:14;9.07;;;2.65;;
803;SDS011;25687;49.976;8.240;2022-08-04T09:40:36;7.38;;;2.38;;
803;SDS011;25687;49.976;8.240;2022-08-04T09:43:26;5.78;;;2.50;;
803;SDS011;25687;49.976;8.240;2022-08-04T09:46:12;4.72;;;2.65;;
803;SDS011;25687;49.976;8.240;2022-08-04T09:54:11;5.35;;;2.30;;
803;SDS011;25687;49.976;8.240;2022-08-04T10:02:12;5.18;;;2.25;;
803;SDS011;25687;49.976;8.240;2022-08-04T10:04:41;6.13;;;2.35;;
803;SDS011;25687;49.976;8.240;2022-08-04T10:07:15;3.47;;;2.15;;
803;SDS011;25687;49.976;8.240;2022-08-04T10:10:18;4.10;;;2.17;;
803;SDS011;25687;49.976;8.240;2022-08-04T10:29:53;7.05;;;1.80;;
803;SDS011;25687;49.976;8.240;2022-08-04T10:32:48;9.32;;;2.55;;
803;SDS011;25687;49.976;8.240;2022-08-04T10:35:21;7.03;;;1.80;;
803;SDS011;25687;49.976;8.240;2022-08-04T10:45:58;8.85;;;2.13;;
803;SDS011;25687;49.976;8.240;2022-08-04T10:51:34;4.65;;;1.90;;
803;SDS011;25687;49.976;8.240;2022-08-04T10:54:09;2.35;;;1.70;;
803;SDS011;25687;49.976;8.240;2022-08-04T10:56:52;5.07;;;1.80;;
803;SDS011;25687;49.976;8.240;2022-08-04T10:59:25;4.28;;;1.88;;
803;SDS011;25687;49.976;8.240;2022-08-04T11:01:58;3.40;;;1.75;;
803;SDS011;25687;49.976;8.240;2022-08-04T11:04:50;4.72;;;1.92;;
803;SDS011;25687;49.976;8.240;2022-08-04T11:07:23;9.80;;;2.03;;
803;SDS011;25687;49.976;8.240;2022-08-04T11:09:50;7.20;;;1.90;;
803;SDS011;25687;49.976;8.240;2022-08-04T11:12:18;7.30;;;2.03;;
803;SDS011;25687;49.976;8.240;2022-08-04T11:17:21;4.10;;;1.80;;
803;SDS011;25687;49.976;8.240;2022-08-04T11:22:28;5.55;;;1.95;;
803;SDS011;25687;49.976;8.240;2022-08-04T11:33:20;5.05;;;1.95;;
803;SDS011;25687;49.976;8.240;2022-08-04T11:36:01;4.25;;;1.85;;
803;SDS011;25687;49.976;8.240;2022-08-04T11:39:11;4.18;;;1.52;;
803;SDS011;25687;49.976;8.240;2022-08-04T11:41:59;2.90;;;1.48;;
803;SDS011;25687;49.976;8.240;2022-08-04T11:44:31;4.03;;;1.48;;
803;SDS011;25687;49.976;8.240;2022-08-04T11:47:02;2.22;;;1.35;;
803;SDS011;25687;49.976;8.240;2022-08-04T11:52:21;6.65;;;1.90;;
803;SDS011;25687;49.976;8.240;2022-08-04T11:54:48;6.75;;;1.77;;
803;SDS011;25687;49.976;8.240;2022-08-04T11:57:15;4.10;;;1.50;;
803;SDS011;25687;49.976;8.240;2022-08-04T11:59:42;2.50;;;1.67;;
803;SDS011;25687;49.976;8.240;2022-08-04T12:02:17;1.67;;;1.40;;
803;SDS011;25687;49.976;8.240;2022-08-04T12:04:48;6.57;;;1.70;;
803;SDS011;25687;49.976;8.240;2022-08-04T12:10:25;3.28;;;1.60;;
803;SDS011;25687;49.976;8.240;2022-08-04T12:13:03;1.35;;;1.20;;
803;SDS011;25687;49.976;8.240;2022-08-04T12:18:38;3.42;;;1.38;;
803;SDS011;25687;49.976;8.240;2022-08-04T12:21:13;3.85;;;1.30;;
803;SDS011;25687;49.976;8.240;2022-08-04T12:23:55;4.60;;;1.52;;
803;SDS011;25687;49.976;8.240;2022-08-04T12:26:27;2.50;;;1.30;;
803;SDS011;25687;49.976;8.240;2022-08-04T12:29:01;1.08;;;1.08;;
803;SDS011;25687;49.976;8.240;2022-08-04T12:31:31;4.35;;;1.20;;
803;SDS011;25687;49.976;8.240;2022-08-04T12:37:17;4.63;;;1.27;;
803;SDS011;25687;49.976;8.240;2022-08-04T12:39:44;5.13;;;1.60;;
803;SDS011;25687;49.976;8.240;2022-08-04T12:42:16;2.17;;;1.30;;
803;SDS011;25687;49.976;8.240;2022-08-04T12:44:48;2.05;;;1.33;;
803;SDS011;25687;49.976;8.240;2022-08-04T12:47:21;4.55;;;1.50;;
803;SDS011;25687;49.976;8.240;2022-08-04T12:49:49;1.42;;;1.20;;
803;SDS011;25687;49.976;8.240;2022-08-04T12:59:05;6.13;;;1.63;;
803;SDS011;25687;49.976;8.240;2022-08-04T13:01:31;2.22;;;1.10;;
803;SDS011;25687;49.976;8.240;2022-08-04T13:03:59;2.60;;;1.33;;
803;SDS011;25687;49.976;8.240;2022-08-04T13:06:29;1.85;;;1.27;;
803;SDS011;25687;49.976;8.240;2022-08-04T13:09:02;4.55;;;1.52;;
803;SDS011;25687;49.976;8.240;2022-08-04T13:11:40;4.38;;;1.17;;
803;SDS011;25687;49.976;8.240;2022-08-04T13:14:10;2.83;;;1.42;;
803;SDS011;25687;49.976;8.240;2022-08-04T13:16:37;3.40;;;1.48;;
803;SDS011;25687;49.976;8.240;2022-08-04T13:19:04;2.70;;;1.25;;
803;SDS011;25687;49.976;8.240;2022-08-04T13:21:31;1.80;;;1.10;;
803;SDS011;25687;49.976;8.240;2022-08-04T13:24:02;2.35;;;1.10;;
803;SDS011;25687;49.976;8.240;2022-08-04T13:26:30;4.30;;;1.27;;
803;SDS011;25687;49.976;8.240;2022-08-04T13:28:58;4.85;;;1.70;;
803;SDS011;25687;49.976;8.240;2022-08-04T13:31:26;2.80;;;1.30;;
803;SDS011;25687;49.976;8.240;2022-08-04T13:33:54;2.35;;;1.20;;
803;SDS011;25687;49.976;8.240;2022-08-04T13:36:27;5.47;;;1.25;;
803;SDS011;25687;49.976;8.240;2022-08-04T13:38:57;1.35;;;1.20;;
803;SDS011;25687;49.976;8.240;2022-08-04T13:41:24;4.30;;;1.33;;
803;SDS011;25687;49.976;8.240;2022-08-04T13:43:56;4.50;;;1.40;;
803;SDS011;25687;49.976;8.240;2022-08-04T13:46:25;5.60;;;1.45;;
803;SDS011;25687;49.976;8.240;2022-08-04T13:48:52;3.88;;;1.88;;
803;SDS011;25687;49.976;8.240;2022-08-04T13:51:19;5.97;;;1.70;;
803;SDS011;25687;49.976;8.240;2022-08-04T13:53:53;4.47;;;1.38;;
803;SDS011;25687;49.976;8.240;2022-08-04T13:56:21;5.20;;;1.75;;
803;SDS011;25687;49.976;8.240;2022-08-04T13:58:48;2.58;;;1.50;;
803;SDS011;25687;49.976;8.240;2022-08-04T14:01:21;2.90;;;1.60;;
803;SDS011;25687;49.976;8.240;2022-08-04T14:06:27;1.45;;;1.27;;
803;SDS011;25687;49.976;8.240;2022-08-04T14:08:57;3.50;;;1.52;;
803;SDS011;25687;49.976;8.240;2022-08-04T14:17:06;4.22;;;1.30;;
803;SDS011;25687;49.976;8.240;2022-08-04T14:27:40;2.55;;;1.63;;
803;SDS011;25687;49.976;8.240;2022-08-04T14:33:05;3.50;;;1.55;;
803;SDS011;25687;49.976;8.240;2022-08-04T14:35:32;3.10;;;1.50;;
803;SDS011;25687;49.976;8.240;2022-08-04T14:38:03;2.65;;;1.67;;
803;SDS011;25687;49.976;8.240;2022-08-04T14:40:31;2.55;;;2.00;;
803;SDS011;25687;49.976;8.240;2022-08-04T14:42:58;3.60;;;1.60;;
803;SDS011;25687;49.976;8.240;2022-08-04T14:45:27;2.38;;;1.83;;
803;SDS011;25687;49.976;8.240;2022-08-04T14:47:53;2.05;;;1.77;;
803;SDS011;25687;49.976;8.240;2022-08-04T14:50:20;1.98;;;1.42;;
803;SDS011;25687;49.976;8.240;2022-08-04T14:53:04;2.28;;;1.75;;
803;SDS011;25687;49.976;8.240;2022-08-04T14:55:34;1.50;;;1.40;;
803;SDS011;25687;49.976;8.240;2022-08-04T14:58:01;1.88;;;1.67;;
803;SDS011;25687;49.976;8.240;2022-08-04T15:00:31;2.38;;;1.50;;
803;SDS011;25687;49.976;8.240;2022-08-04T15:03:00;2.55;;;1.60;;
803;SDS011;25687;49.976;8.240;2022-08-04T15:05:32;2.35;;;1.35;;
803;SDS011;25687;49.976;8.240;2022-08-04T15:07:58;4.22;;;1.30;;
803;SDS011;25687;49.976;8.240;2022-08-04T15:10:23;2.40;;;1.60;;
803;SDS011;25687;49.976;8.240;2022-08-04T15:12:49;1.40;;;1.30;;
803;SDS011;25687;49.976;8.240;2022-08-04T15:15:15;2.47;;;1.55;;
803;SDS011;25687;49.976;8.240;2022-08-04T15:17:41;4.28;;;1.58;;
803;SDS011;25687;49.976;8.240;2022-08-04T15:20:07;1.75;;;1.25;;
803;SDS011;25687;49.976;8.240;2022-08-04T15:22:34;2.10;;;1.50;;
803;SDS011;25687;49.976;8.240;2022-08-04T15:24:59;2.72;;;1.35;;
803;SDS011;25687;49.976;8.240;2022-08-04T15:27:26;2.25;;;1.60;;
803;SDS011;25687;49.976;8.240;2022-08-04T15:29:59;6.07;;;1.58;;
803;SDS011;25687;49.976;8.240;2022-08-04T15:32:27;2.88;;;1.55;;
803;SDS011;25687;49.976;8.240;2022-08-04T15:35:00;8.30;;;1.80;;
803;SDS011;25687;49.976;8.240;2022-08-04T15:40:29;7.15;;;1.65;;
803;SDS011;25687;49.976;8.240;2022-08-04T15:46:04;2.58;;;1.50;;
803;SDS011;25687;49.976;8.240;2022-08-04T15:48:30;3.58;;;1.42;;
803;SDS011;25687;49.976;8.240;2022-08-04T15:53:25;2.20;;;1.70;;
803;SDS011;25687;49.976;8.240;2022-08-04T15:55:52;1.85;;;1.52;;
803;SDS011;25687;49.976;8.240;2022-08-04T15:58:18;2.70;;;1.60;;
803;SDS011;25687;49.976;8.240;2022-08-04T16:08:30;5.28;;;1.95;;
803;SDS011;25687;49.976;8.240;2022-08-04T16:19:06;4.82;;;1.90;;
803;SDS011;25687;49.976;8.240;2022-08-04T16:21:32;5.25;;;1.95;;
803;SDS011;25687;49.976;8.240;2022-08-04T16:24:05;7.95;;;1.83;;
803;SDS011;25687;49.976;8.240;2022-08-04T16:29:03;8.77;;;1.73;;
803;SDS011;25687;49.976;8.240;2022-08-04T16:37:07;1.73;;;1.42;;
803;SDS011;25687;49.976;8.240;2022-08-04T16:39:37;6.18;;;1.95;;
803;SDS011;25687;49.976;8.240;2022-08-04T16:45:00;4.50;;;1.90;;
803;SDS011;25687;49.976;8.240;2022-08-04T16:50:21;7.88;;;1.90;;
803;SDS011;25687;49.976;8.240;2022-08-04T16:52:49;1.70;;;1.60;;
803;SDS011;25687;49.976;8.240;2022-08-04T16:55:17;1.90;;;1.80;;
803;SDS011;25687;49.976;8.240;2022-08-04T16:57:47;5.90;;;2.20;;
803;SDS011;25687;49.976;8.240;2022-08-04T17:00:13;6.53;;;2.22;;
803;SDS011;25687;49.976;8.240;2022-08-04T17:02:39;2.58;;;1.88;;
803;SDS011;25687;49.976;8.240;2022-08-04T17:05:06;2.42;;;1.73;;
803;SDS011;25687;49.976;8.240;2022-08-04T17:08:03;3.78;;;1.67;;
803;SDS011;25687;49.976;8.240;2022-08-04T17:12:58;2.88;;;2.20;;
803;SDS011;25687;49.976;8.240;2022-08-04T17:15:25;4.85;;;1.58;;
803;SDS011;25687;49.976;8.240;2022-08-04T17:17:50;3.50;;;1.73;;
803;SDS011;25687;49.976;8.240;2022-08-04T17:20:16;3.28;;;1.60;;
803;SDS011;25687;49.976;8.240;2022-08-04T17:22:50;2.42;;;1.77;;
803;SDS011;25687;49.976;8.240;2022-08-04T17:25:15;4.78;;;1.80;;
803;SDS011;25687;49.976;8.240;2022-08-04T17:27:41;3.20;;;1.58;;
803;SDS011;25687;49.976;8.240;2022-08-04T17:30:12;3.97;;;1.50;;
803;SDS011;25687;49.976;8.240;2022-08-04T17:32:51;5.10;;;1.65;;
803;SDS011;25687;49.976;8.240;2022-08-04T17:35:16;6.85;;;1.70;;
803;SDS011;25687;49.976;8.240;2022-08-04T17:37:42;8.02;;;1.85;;
803;SDS011;25687;49.976;8.240;2022-08-04T17:40:11;9.50;;;1.70;;
803;SDS011;25687;49.976;8.240;2022-08-04T17:42:39;4.82;;;1.73;;
803;SDS011;25687;49.976;8.240;2022-08-04T17:45:08;6.25;;;1.90;;
803;SDS011;25687;49.976;8.240;2022-08-04T17:47:48;6.78;;;1.55;;
803;SDS011;25687;49.976;8.240;2022-08-04T17:50:22;7.93;;;1.80;;
803;SDS011;25687;49.976;8.240;2022-08-04T17:53:07;3.97;;;1.83;;
803;SDS011;25687;49.976;8.240;2022-08-04T17:55:37;10.43;;;1.80;;
803;SDS011;25687;49.976;8.240;2022-08-04T17:58:11;9.27;;;2.05;;
803;SDS011;25687;49.976;8.240;2022-08-04T18:00:38;5.80;;;1.60;;
803;SDS011;25687;49.976;8.240;2022-08-04T18:03:03;8.82;;;1.65;;
803;SDS011;25687;49.976;8.240;2022-08-04T18:05:28;4.07;;;1.80;;
803;SDS011;25687;49.976;8.240;2022-08-04T18:07:55;5.97;;;1.60;;
803;SDS011;25687;49.976;8.240;2022-08-04T18:10:36;6.13;;;1.98;;
803;SDS011;25687;49.976;8.240;2022-08-04T18:13:06;8.65;;;2.13;;
803;SDS011;25687;49.976;8.240;2022-08-04T18:15:32;7.65;;;1.77;;
803;SDS011;25687;49.976;8.240;2022-08-04T18:17:57;4.47;;;1.60;;
803;SDS011;25687;49.976;8.240;2022-08-04T18:20:23;4.07;;;1.60;;
803;SDS011;25687;49.976;8.240;2022-08-04T18:22:50;4.45;;;1.63;;
803;SDS011;25687;49.976;8.240;2022-08-04T18:25:16;3.55;;;1.90;;
803;SDS011;25687;49.976;8.240;2022-08-04T18:27:46;7.57;;;2.17;;
803;SDS011;25687;49.976;8.240;2022-08-04T18:30:18;15.40;;;2.00;;
803;SDS011;25687;49.976;8.240;2022-08-04T18:32:45;2.47;;;1.60;;
803;SDS011;25687;49.976;8.240;2022-08-04T18:35:11;2.28;;;1.50;;
803;SDS011;25687;49.976;8.240;2022-08-04T18:37:36;4.85;;;1.73;;
803;SDS011;25687;49.976;8.240;2022-08-04T18:40:03;3.95;;;1.70;;
803;SDS011;25687;49.976;8.240;2022-08-04T18:42:29;1.75;;;1.55;;
803;SDS011;25687;49.976;8.240;2022-08-04T18:44:55;3.33;;;1.77;;
803;SDS011;25687;49.976;8.240;2022-08-04T18:47:20;5.82;;;1.75;;
803;SDS011;25687;49.976;8.240;2022-08-04T18:49:46;3.83;;;2.10;;
803;SDS011;25687;49.976;8.240;2022-08-04T18:52:12;5.30;;;2.33;;
803;SDS011;25687;49.976;8.240;2022-08-04T18:54:37;3.42;;;2.30;;
803;SDS011;25687;49.976;8.240;2022-08-04T18:57:03;3.95;;;1.73;;
803;SDS011;25687;49.976;8.240;2022-08-04T18:59:28;2.95;;;1.77;;
803;SDS011;25687;49.976;8.240;2022-08-04T19:01:53;2.42;;;2.15;;
803;SDS011;25687;49.976;8.240;2022-08-04T19:04:19;5.25;;;1.75;;
803;SDS011;25687;49.976;8.240;2022-08-04T19:06:44;1.95;;;1.83;;
803;SDS011;25687;49.976;8.240;2022-08-04T19:09:09;3.72;;;2.15;;
803;SDS011;25687;49.976;8.240;2022-08-04T19:11:35;4.00;;;2.30;;
803;SDS011;25687;49.976;8.240;2022-08-04T19:14:01;11.00;;;2.38;;
803;SDS011;25687;49.976;8.240;2022-08-04T19:16:28;4.03;;;1.95;;
803;SDS011;25687;49.976;8.240;2022-08-04T19:18:55;3.25;;;1.83;;
803;SDS011;25687;49.976;8.240;2022-08-04T19:21:21;2.72;;;1.83;;
803;SDS011;25687;49.976;8.240;2022-08-04T19:23:46;3.88;;;2.13;;
803;SDS011;25687;49.976;8.240;2022-08-04T19:26:11;4.20;;;2.17;;
803;SDS011;25687;49.976;8.240;2022-08-04T19:28:37;4.75;;;2.20;;
803;SDS011;25687;49.976;8.240;2022-08-04T19:31:03;4.55;;;2.00;;
803;SDS011;25687;49.976;8.240;2022-08-04T19:33:32;3.25;;;2.17;;
803;SDS011;25687;49.976;8.240;2022-08-04T19:35:57;7.60;;;2.80;;
803;SDS011;25687;49.976;8.240;2022-08-04T19:38:23;8.25;;;2.55;;
803;SDS011;25687;49.976;8.240;2022-08-04T19:40:48;6.65;;;2.13;;
803;SDS011;25687;49.976;8.240;2022-08-04T19:43:13;5.18;;;2.28;;
803;SDS011;25687;49.976;8.240;2022-08-04T19:45:39;5.20;;;2.22;;
803;SDS011;25687;49.976;8.240;2022-08-04T19:48:05;10.63;;;2.17;;
803;SDS011;25687;49.976;8.240;2022-08-04T19:50:30;4.60;;;2.28;;
803;SDS011;25687;49.976;8.240;2022-08-04T19:52:56;10.20;;;2.35;;
803;SDS011;25687;49.976;8.240;2022-08-04T19:55:22;5.93;;;2.08;;
803;SDS011;25687;49.976;8.240;2022-08-04T19:57:49;6.13;;;2.45;;
803;SDS011;25687;49.976;8.240;2022-08-04T20:00:15;7.43;;;1.90;;
803;SDS011;25687;49.976;8.240;2022-08-04T20:02:42;4.18;;;2.35;;
803;SDS011;25687;49.976;8.240;2022-08-04T20:05:08;6.95;;;2.42;;
803;SDS011;25687;49.976;8.240;2022-08-04T20:07:33;5.43;;;2.20;;
803;SDS011;25687;49.976;8.240;2022-08-04T20:09:59;4.45;;;2.20;;
803;SDS011;25687;49.976;8.240;2022-08-04T20:12:24;8.05;;;2.70;;
803;SDS011;25687;49.976;8.240;2022-08-04T20:14:49;10.02;;;2.58;;
803;SDS011;25687;49.976;8.240;2022-08-04T20:17:15;5.93;;;2.50;;
803;SDS011;25687;49.976;8.240;2022-08-04T20:19:40;8.85;;;2.20;;
803;SDS011;25687;49.976;8.240;2022-08-04T20:22:06;7.55;;;2.20;;
803;SDS011;25687;49.976;8.240;2022-08-04T20:24:32;6.28;;;2.60;;
803;SDS011;25687;49.976;8.240;2022-08-04T20:26:57;5.35;;;2.30;;
803;SDS011;25687;49.976;8.240;2022-08-04T20:29:22;6.10;;;2.75;;
803;SDS011;25687;49.976;8.240;2022-08-04T20:31:48;11.73;;;2.45;;
803;SDS011;25687;49.976;8.240;2022-08-04T20:34:14;8.93;;;2.03;;
803;SDS011;25687;49.976;8.240;2022-08-04T20:36:39;14.52;;;2.80;;
803;SDS011;25687;49.976;8.240;2022-08-04T20:39:05;6.50;;;2.10;;
803;SDS011;25687;49.976;8.240;2022-08-04T20:41:31;8.75;;;2.97;;
803;SDS011;25687;49.976;8.240;2022-08-04T20:43:57;4.43;;;2.55;;
803;SDS011;25687;49.976;8.240;2022-08-04T20:46:22;6.20;;;2.58;;
803;SDS011;25687;49.976;8.240;2022-08-04T20:48:48;8.18;;;2.05;;
803;SDS011;25687;49.976;8.240;2022-08-04T20:51:14;8.85;;;2.08;;
803;SDS011;25687;49.976;8.240;2022-08-04T20:53:44;5.53;;;2.40;;
803;SDS011;25687;49.976;8.240;2022-08-04T20:56:10;7.20;;;2.25;;
803;SDS011;25687;49.976;8.240;2022-08-04T20:58:36;6.30;;;2.30;;
803;SDS011;25687;49.976;8.240;2022-08-04T21:01:01;5.63;;;2.08;;